Rhonda E — WDF4153 — position and weather

sailwx.info

Track history (hours):
 
Tides and Currents Weather Stations Pressure Air Temp Water Temp Dewpoint Dewpoint Depression Visibility Wind Speed Wind Dir Waves Ship Positions

Rhonda E

Owner: Rhonda E., Baytown, TX. More information available from US FCC via Universal Licensing System and Coast Guard Vessel Documentation Center.

Last reported at 2018-Feb-25 11:26 UTC. Time now 2018-Feb-25 21:26 UTC.
Position N 29°45' W 095°04'.

Length 9 m; draft 2.2 m.

Type: . MMSI: 367448590.

Date/timePositionNaut miles runAvg speedWind from/ knotsBaromVisibWave heightAir tempDewpointWater temp
2018-Feb-25 11:26N 29°45' W 095°04'2 5.2
2018-Feb-25 10:57N 29°44' W 095°01'2 4.4
2018-Feb-25 10:27N 29°42' W 094°60'2 3.5
2018-Feb-25 09:56N 29°41' W 094°58'3 1.9
2018-Feb-25 08:36N 29°42' W 094°55'0 0.0
2018-Feb-25 08:30N 29°42' W 094°55'0 0.0
2018-Feb-25 07:43N 29°42' W 094°55'0 0.0
2018-Feb-25 07:30N 29°42' W 094°55'1 1.3
2018-Feb-25 06:33N 29°43' W 094°56'1 1.1
2018-Feb-25 05:27N 29°42' W 094°55'1 3.3
2018-Feb-25 05:00N 29°41' W 094°56'2 4.0
2018-Feb-25 04:29N 29°41' W 094°58'3 5.7
2018-Feb-25 03:59N 29°42' W 095°01'  
2018-Feb-22 03:59N 29°44' W 095°04'3 5.1
2018-Feb-22 03:28N 29°43' W 095°01'3 5.5
2018-Feb-22 03:00N 29°41' W 094°59'3 0.6
2018-Feb-21 21:52N 29°42' W 094°55'  
2018-Feb-19 06:57N 29°45' W 095°11'  
2018-Feb-16 01:25N 29°45' W 095°10'13 1.6
2018-Feb-15 17:22N 29°42' W 094°55'1 2.9
2018-Feb-15 16:57N 29°40' W 094°56'1 3.1
2018-Feb-15 16:28N 29°41' W 094°57'1 2.0
2018-Feb-15 15:58N 29°41' W 094°58'  
Track history (hours):
 
Tides and Currents Weather Stations Pressure Air Temp Water Temp Dewpoint Dewpoint Depression Visibility Wind Speed Wind Dir Waves Ship Positions

Rhonda E

Owner: Rhonda E., Baytown, TX. More information available from US FCC via Universal Licensing System and Coast Guard Vessel Documentation Center.

Last reported at 2018-Feb-25 11:26 UTC. Time now 2018-Feb-25 21:26 UTC.
Position N 29°45' W 095°04'.

Length 9 m; draft 2.2 m.

Type: . MMSI: 367448590.

Date/timePositionNaut miles runAvg speedWind from/ knotsBaromVisibWave heightAir tempDewpointWater temp
2018-Feb-25 11:26N 29°45' W 095°04'2 5.2
2018-Feb-25 10:57N 29°44' W 095°01'2 4.4
2018-Feb-25 10:27N 29°42' W 094°60'2 3.5
2018-Feb-25 09:56N 29°41' W 094°58'3 1.9
2018-Feb-25 08:36N 29°42' W 094°55'0 0.0
2018-Feb-25 08:30N 29°42' W 094°55'0 0.0
2018-Feb-25 07:43N 29°42' W 094°55'0 0.0
2018-Feb-25 07:30N 29°42' W 094°55'1 1.3
2018-Feb-25 06:33N 29°43' W 094°56'1 1.1
2018-Feb-25 05:27N 29°42' W 094°55'1 3.3
2018-Feb-25 05:00N 29°41' W 094°56'2 4.0
2018-Feb-25 04:29N 29°41' W 094°58'3 5.7
2018-Feb-25 03:59N 29°42' W 095°01'  
2018-Feb-22 03:59N 29°44' W 095°04'3 5.1
2018-Feb-22 03:28N 29°43' W 095°01'3 5.5
2018-Feb-22 03:00N 29°41' W 094°59'3 0.6
2018-Feb-21 21:52N 29°42' W 094°55'  
2018-Feb-19 06:57N 29°45' W 095°11'  
2018-Feb-16 01:25N 29°45' W 095°10'13 1.6
2018-Feb-15 17:22N 29°42' W 094°55'1 2.9
2018-Feb-15 16:57N 29°40' W 094°56'1 3.1
2018-Feb-15 16:28N 29°41' W 094°57'1 2.0
2018-Feb-15 15:58N 29°41' W 094°58'  

Dump ship's entire track history